Waldwick, NJ (07463)

8:58 AM EDT on October 24, 2014 (GMT -0400)
ROSE | Change Station
CLOSE
Current Station
Personal Weather Station
Location: RAMSEY, NJ
Elevation: 375 ft
Nearby Weather Stations

Elev 375 ft 41.04 °N, 74.14 °W | Updated 1 second ago

Mostly Cloudy
Mostly Cloudy
51.4 °F
Feels Like 51.4 °F
N
3.6
Wind Variable Wind from NNW
Gusts 0.0 mph

Today
High -- | Low -- °F
--% Chance of Precip.
Yesterday
High -- | Low -- °F
Precip. -- in
7:18 AM 6:02 PM
New Moon, 0% visible
Pressure 29.81 in
Visibility 10.0 miles
Clouds Mostly Cloudy 2600 ft
Overcast 3900 ft
Dew Point 28 °F
Humidity 40%
Rainfall 0.00 in
Snow Depth Not available.
UV 0 out of 12
Pollen 1.70 out of 12
Air Quality Not available.
Flu Activity Sporadic
METAR KTEB 241251Z 33008KT 10SM BKN026 OVC039 12/06 A2981 RMK AO2 SLP095 T01170061

More Conditions Fewer Conditions

Pressure 29.81 in
Visibility 10.0 miles
Clouds Mostly Cloudy 2600 ft
Overcast 3900 ft
Dew Point 28 °F
Humidity 40%
Rainfall 0.00 in
Snow Depth Not available.
UV 0 out of 12
Pollen 1.70 out of 12
Air Quality Not available.
Flu Activity Sporadic
METAR KTEB 241251Z 33008KT 10SM BKN026 OVC039 12/06 A2981 RMK AO2 SLP095 T01170061

More Conditions Fewer Conditions

10-Day Weather Forecast

Almanac

Astronomy

Oct. 24, 2014 Rise Set
Actual Time 7:18 AM EDT 6:02 PM EDT
Civil Twilight 6:49 AM EDT 6:30 PM EDT
Nautical Twilight 6:17 AM EDT 7:02 PM EDT
Astronomical Twilight 5:45 AM EDT 7:34 PM EDT
Moon 7:54 AM EDT 6:40 PM EDT
Length of Visible Light 11h 40m
Length of Day
10h 44m
Tomorrow will be 2m 32s shorter.
New Moon, 0% of the Moon is Illuminated
Today
New Moon
Oct 30
First Quarter
Nov 6
Full
Nov 14
Last Quarter
Nov 22
New

Today's Extremes

State Highs State Lows

Community

WunderPhotos

Upload Photos

1,764,544 photos uploaded!

Nearby

Snow Depth

Station Depth Elevation
No new snow has been reported.

Earthquake Activity

City Distance Mag. Time & Date
No recent earthquake activity has been reported nearby.
Minimum magnitude displayed is 2.5.

Coastal Water Temperatures

Place Temperature
Bridgeport, CT 60.1 °F

Nearby Weather Stations